Terminal Aerodrome Forecast
Issued by NWS

Home | Current Version | Previous Version | Graphics & Text | Print | Product List | Glossary On
Versions: 1 2 3 4 5 6 7 8 9 10 11 12
000
FTUS43 KICT 170500
TAFCNU
TAF
KCNU 170522Z 1706/1806 VRB03KT P6SM BKN150
     FM170800 01009KT P6SM OVC100
      TEMPO 1718/1722 6SM -RA OVC040
     FM172300 07005KT P6SM BKN090=

USA.gov is the U.S. government's official web portal to all federal, state and local government web resources and services.